Time;durP1;ratioP1;P1;durP2;ratioP2;P2;SDS_P1;SDS_P2;PMS_P1;PMS_P2;Temp;Humidity;BMP_temperature;BMP_pressure;BME280_temperature;BME280_humidity;BME280_pressure;Samples;Min_cycle;Max_cycle;Signal;HPM_P1;HPM_P2
2023/05/12 00:01:06;;;;;;;4.10;1.50;;;;;;;;;;5159152;27;20027;-81
2023/05/12 00:03:31;;;;;;;1.60;1.40;;;;;;;;;;5140998;27;20486;-81
2023/05/12 00:05:59;;;;;;;2.72;1.50;;;;;;;;;;5140449;27;20114;-81
2023/05/12 00:08:24;;;;;;;1.50;1.40;;;;;;;;;;5140841;27;20071;-81
2023/05/12 00:10:50;;;;;;;1.50;1.40;;;;;;;;;;5140412;27;20030;-81
2023/05/12 00:13:15;;;;;;;1.38;1.27;;;;;;;;;;5159172;27;20046;-81
2023/05/12 00:15:41;;;;;;;1.50;1.40;;;;;;;;;;5159102;27;20023;-81
2023/05/12 00:18:06;;;;;;;3.15;1.55;;;;;;;;;;5140443;27;20025;-80
2023/05/12 00:20:32;;;;;;;1.35;1.25;;;;;;;;;;5140290;27;20034;-80
2023/05/12 00:22:57;;;;;;;1.40;1.30;;;;;;;;;;5159207;27;20037;-81
2023/05/12 00:25:22;;;;;;;1.30;1.20;;;;;;;;;;5158632;27;20023;-81
2023/05/12 00:27:47;;;;;;;1.27;1.17;;;;;;;;;;5140077;27;20118;-81
2023/05/12 00:30:13;;;;;;;1.50;1.40;;;;;;;;;;5139962;27;20071;-81
2023/05/12 00:32:38;;;;;;;1.45;1.35;;;;;;;;;;5140343;27;20026;-81
2023/05/12 00:35:04;;;;;;;1.35;1.25;;;;;;;;;;5139736;27;20031;-81
2023/05/12 00:37:29;;;;;;;1.33;1.23;;;;;;;;;;5122722;27;20034;-81
2023/05/12 00:39:55;;;;;;;1.50;1.40;;;;;;;;;;5139933;27;20031;-81
2023/05/12 00:42:20;;;;;;;1.73;1.25;;;;;;;;;;5139752;27;20389;-82
2023/05/12 00:44:46;;;;;;;1.30;1.20;;;;;;;;;;5139622;27;20026;-82
2023/05/12 00:47:13;;;;;;;1.35;1.25;;;;;;;;;;5158791;27;20369;-82
2023/05/12 00:49:41;;;;;;;1.23;1.17;;;;;;;;;;5139906;27;20111;-82
2023/05/12 00:52:07;;;;;;;1.15;1.15;;;;;;;;;;5140132;27;20027;-82
2023/05/12 00:54:33;;;;;;;1.40;1.20;;;;;;;;;;5139547;27;20097;-81
2023/05/12 00:56:59;;;;;;;1.20;1.10;;;;;;;;;;5122254;27;20019;-81
2023/05/12 00:59:24;;;;;;;1.15;1.15;;;;;;;;;;5122181;27;20519;-81
2023/05/12 01:01:49;;;;;;;1.10;1.10;;;;;;;;;;5157899;27;20553;-81
2023/05/12 01:04:15;;;;;;;0.95;0.95;;;;;;;;;;5157202;27;20026;-81
2023/05/12 01:06:45;;;;;;;1.08;1.08;;;;;;;;;;5139349;27;20488;-81
2023/05/12 01:09:11;;;;;;;1.27;1.17;;;;;;;;;;5139642;27;20054;-81
2023/05/12 01:11:36;;;;;;;1.65;1.02;;;;;;;;;;5139242;27;20106;-81
2023/05/12 01:14:02;;;;;;;1.10;1.10;;;;;;;;;;5157532;27;20096;-81
2023/05/12 01:16:30;;;;;;;3.67;0.90;;;;;;;;;;5157894;27;20038;-81
2023/05/12 01:18:56;;;;;;;1.10;1.00;;;;;;;;;;5138973;27;20026;-81
2023/05/12 01:21:22;;;;;;;1.00;1.00;;;;;;;;;;5139066;27;20027;-81
2023/05/12 01:23:57;;;;;;;0.95;0.95;;;;;;;;;;5138947;27;20042;-81
2023/05/12 01:26:23;;;;;;;2.35;1.17;;;;;;;;;;5121807;27;20027;-81
2023/05/12 01:28:49;;;;;;;0.95;0.95;;;;;;;;;;5138894;27;20440;-81
2023/05/12 01:31:15;;;;;;;1.05;1.00;;;;;;;;;;5138924;27;20037;-81
2023/05/12 01:33:41;;;;;;;1.17;1.02;;;;;;;;;;5138734;27;20097;-81
2023/05/12 01:36:06;;;;;;;1.10;1.10;;;;;;;;;;5139023;27;20118;-81
2023/05/12 01:38:31;;;;;;;0.85;0.85;;;;;;;;;;5138747;27;20026;-81
2023/05/12 01:40:57;;;;;;;1.00;0.90;;;;;;;;;;5138833;27;20469;-81
2023/05/12 01:43:22;;;;;;;1.20;0.88;;;;;;;;;;5157135;27;20040;-80
2023/05/12 01:45:48;;;;;;;1.00;1.00;;;;;;;;;;5157456;27;20022;-80
2023/05/12 01:48:13;;;;;;;1.80;1.08;;;;;;;;;;5157280;27;20061;-80
2023/05/12 01:50:38;;;;;;;0.93;0.90;;;;;;;;;;5138437;27;20027;-80
2023/05/12 01:53:04;;;;;;;1.05;0.93;;;;;;;;;;5138778;27;20041;-80
2023/05/12 01:55:29;;;;;;;0.85;0.85;;;;;;;;;;5138488;27;20023;-80
2023/05/12 01:57:54;;;;;;;0.98;0.95;;;;;;;;;;5156960;27;20521;-80
2023/05/12 02:00:20;;;;;;;0.80;0.80;;;;;;;;;;5138234;27;20121;-79
2023/05/12 02:02:45;;;;;;;1.00;1.00;;;;;;;;;;5157022;27;20037;-80
2023/05/12 02:05:11;;;;;;;0.85;0.85;;;;;;;;;;5156667;27;20031;-80
2023/05/12 02:07:36;;;;;;;2.65;1.40;;;;;;;;;;5120907;27;20499;-80
2023/05/12 02:10:02;;;;;;;0.85;0.85;;;;;;;;;;5138017;27;20031;-80
2023/05/12 02:12:27;;;;;;;0.88;0.88;;;;;;;;;;5156388;27;20026;-81
2023/05/12 02:14:53;;;;;;;1.00;1.00;;;;;;;;;;5157063;27;20031;-80
2023/05/12 02:17:18;;;;;;;0.70;0.70;;;;;;;;;;5137926;27;20105;-80
2023/05/12 02:19:43;;;;;;;0.75;0.75;;;;;;;;;;5137861;27;20031;-80
2023/05/12 02:22:09;;;;;;;0.95;0.88;;;;;;;;;;5156586;27;20030;-80
2023/05/12 02:24:34;;;;;;;0.80;0.80;;;;;;;;;;5120661;27;20548;-80
2023/05/12 02:27:00;;;;;;;0.90;0.90;;;;;;;;;;5120958;27;20473;-80
2023/05/12 02:29:25;;;;;;;0.70;0.70;;;;;;;;;;5156224;27;20022;-80
2023/05/12 02:31:50;;;;;;;0.90;0.90;;;;;;;;;;5137783;27;20023;-80
2023/05/12 02:34:16;;;;;;;0.90;0.90;;;;;;;;;;5156192;27;20384;-80
2023/05/12 02:36:41;;;;;;;1.33;1.10;;;;;;;;;;5137426;27;20049;-80
2023/05/12 02:39:07;;;;;;;1.30;1.00;;;;;;;;;;5120628;27;20023;-80
2023/05/12 02:41:32;;;;;;;0.90;0.90;;;;;;;;;;5120225;27;20103;-80
2023/05/12 02:43:58;;;;;;;0.73;0.73;;;;;;;;;;5120184;27;20438;-80
2023/05/12 02:46:23;;;;;;;0.70;0.70;;;;;;;;;;5137906;27;20031;-80
2023/05/12 02:48:48;;;;;;;1.48;1.00;;;;;;;;;;5155856;27;20019;-80
2023/05/12 02:51:14;;;;;;;0.98;0.95;;;;;;;;;;5137583;27;20031;-79
2023/05/12 02:53:39;;;;;;;0.88;0.88;;;;;;;;;;5156046;27;20022;-80
2023/05/12 02:56:05;;;;;;;0.80;0.80;;;;;;;;;;5155638;27;20023;-79
2023/05/12 02:58:30;;;;;;;0.90;0.90;;;;;;;;;;5155780;27;20087;-80
2023/05/12 03:00:56;;;;;;;0.90;0.90;;;;;;;;;;5102969;27;20038;-80
2023/05/12 03:03:21;;;;;;;1.02;1.00;;;;;;;;;;5155821;27;20062;-80
2023/05/12 03:05:47;;;;;;;1.10;0.85;;;;;;;;;;5136934;27;20027;-81
2023/05/12 03:08:13;;;;;;;0.90;0.90;;;;;;;;;;5155403;27;20031;-80
2023/05/12 03:10:38;;;;;;;1.50;1.25;;;;;;;;;;5155783;27;20031;-80
2023/05/12 03:13:03;;;;;;;1.20;1.10;;;;;;;;;;5136692;27;20050;-80
2023/05/12 03:15:29;;;;;;;1.17;1.10;;;;;;;;;;5136934;27;20159;-80
2023/05/12 03:17:55;;;;;;;0.98;0.98;;;;;;;;;;5155711;27;20454;-79
2023/05/12 03:20:20;;;;;;;1.30;1.20;;;;;;;;;;5155297;27;20041;-80
2023/05/12 03:22:45;;;;;;;1.50;1.40;;;;;;;;;;5155551;27;20035;-80
2023/05/12 03:25:11;;;;;;;1.75;1.30;;;;;;;;;;5102624;27;20027;-81
2023/05/12 03:27:36;;;;;;;1.30;1.20;;;;;;;;;;5136445;27;20030;-81
2023/05/12 03:30:04;;;;;;;1.30;1.20;;;;;;;;;;5136960;27;20375;-80
2023/05/12 03:32:29;;;;;;;1.55;1.40;;;;;;;;;;5119606;27;20492;-80
2023/05/12 03:34:55;;;;;;;1.50;1.40;;;;;;;;;;5136571;27;20033;-80
2023/05/12 03:37:20;;;;;;;1.55;1.42;;;;;;;;;;5119363;27;20026;-81
2023/05/12 03:39:45;;;;;;;1.52;1.27;;;;;;;;;;5155007;27;20449;-81
2023/05/12 03:42:12;;;;;;;1.50;1.40;;;;;;;;;;5155165;27;20082;-81
2023/05/12 03:44:38;;;;;;;1.50;1.40;;;;;;;;;;5137014;27;20030;-81
2023/05/12 03:47:03;;;;;;;1.58;1.48;;;;;;;;;;5155215;27;20029;-81
2023/05/12 03:49:29;;;;;;;1.52;1.42;;;;;;;;;;5154924;27;20026;-81
2023/05/12 03:51:54;;;;;;;1.60;1.50;;;;;;;;;;5154811;27;20027;-81
2023/05/12 03:54:20;;;;;;;1.63;1.52;;;;;;;;;;5136270;27;20503;-80
2023/05/12 03:56:45;;;;;;;1.48;1.38;;;;;;;;;;5119246;27;20050;-81
2023/05/12 03:59:10;;;;;;;1.65;1.50;;;;;;;;;;5118746;27;20023;-81
2023/05/12 04:01:36;;;;;;;1.98;1.63;;;;;;;;;;5154389;27;20090;-80
2023/05/12 04:04:02;;;;;;;2.50;1.65;;;;;;;;;;5118993;27;20027;-80
2023/05/12 04:06:27;;;;;;;2.40;1.85;;;;;;;;;;5118837;27;20031;-83
2023/05/12 04:08:52;;;;;;;2.70;1.85;;;;;;;;;;5136203;27;20054;-82
2023/05/12 04:11:18;;;;;;;5.65;2.20;;;;;;;;;;5136002;27;20026;-82
2023/05/12 04:13:43;;;;;;;5.75;2.30;;;;;;;;;;5154247;27;20047;-82
2023/05/12 04:16:08;;;;;;;5.65;2.28;;;;;;;;;;5136111;27;20545;-82
2023/05/12 04:18:35;;;;;;;6.13;2.72;;;;;;;;;;5118644;27;20027;-82
2023/05/12 04:21:01;;;;;;;5.75;2.65;;;;;;;;;;5136379;27;20058;-82
2023/05/12 04:23:27;;;;;;;5.30;2.75;;;;;;;;;;5117778;27;20117;-81
2023/05/12 04:25:52;;;;;;;4.35;2.80;;;;;;;;;;5134967;27;20122;-82
2023/05/12 04:28:17;;;;;;;6.82;3.03;;;;;;;;;;5153561;27;20432;-83
2023/05/12 04:30:43;;;;;;;9.65;3.15;;;;;;;;;;5117983;27;20074;-81
2023/05/12 04:33:08;;;;;;;7.72;2.92;;;;;;;;;;5153463;27;20396;-81
2023/05/12 04:35:34;;;;;;;6.35;3.13;;;;;;;;;;5117916;27;20022;-81
2023/05/12 04:38:00;;;;;;;6.15;3.38;;;;;;;;;;5153332;27;20075;-81
2023/05/12 04:40:26;;;;;;;3.72;2.50;;;;;;;;;;5137458;27;20022;-83
2023/05/12 04:42:51;;;;;;;5.55;3.00;;;;;;;;;;5122052;27;20354;-81
2023/05/12 04:45:17;;;;;;;4.03;2.75;;;;;;;;;;5121893;27;20031;-82
2023/05/12 04:47:42;;;;;;;4.65;3.05;;;;;;;;;;5158162;27;20363;-82
2023/05/12 04:50:09;;;;;;;5.28;2.92;;;;;;;;;;5139572;27;20389;-81
2023/05/12 04:52:35;;;;;;;4.88;2.95;;;;;;;;;;5139526;27;20026;-82
2023/05/12 04:55:00;;;;;;;3.63;2.85;;;;;;;;;;5158393;27;20109;-80
2023/05/12 04:57:26;;;;;;;5.95;2.90;;;;;;;;;;5140150;27;20118;-81
2023/05/12 04:59:51;;;;;;;3.78;2.60;;;;;;;;;;5139787;27;20065;-80
2023/05/12 05:02:16;;;;;;;5.22;2.70;;;;;;;;;;5158997;27;20031;-81
2023/05/12 05:04:42;;;;;;;4.47;2.75;;;;;;;;;;5158539;27;20388;-84
2023/05/12 05:07:07;;;;;;;3.95;3.05;;;;;;;;;;5139790;27;20038;-82
2023/05/12 05:09:33;;;;;;;6.95;3.20;;;;;;;;;;5123822;27;20496;-81
2023/05/12 05:11:58;;;;;;;5.18;2.85;;;;;;;;;;5105924;27;20027;-83
2023/05/12 05:14:23;;;;;;;4.40;2.95;;;;;;;;;;5124801;27;20046;-83
2023/05/12 05:16:49;;;;;;;4.70;3.10;;;;;;;;;;5162360;27;20034;-83
2023/05/12 05:19:15;;;;;;;5.85;2.85;;;;;;;;;;5158669;27;20031;-83
2023/05/12 05:21:40;;;;;;;5.38;3.08;;;;;;;;;;5141208;27;20034;-83
2023/05/12 05:24:06;;;;;;;4.53;3.42;;;;;;;;;;5122964;27;20433;-81
2023/05/12 05:26:32;;;;;;;5.40;3.38;;;;;;;;;;5158629;27;20034;-83
2023/05/12 05:28:58;;;;;;;4.85;3.22;;;;;;;;;;5139762;27;20471;-80
2023/05/12 05:31:23;;;;;;;3.95;3.22;;;;;;;;;;5157436;27;20030;-81
2023/05/12 05:33:49;;;;;;;4.32;3.13;;;;;;;;;;5139066;27;20437;-83
2023/05/12 05:36:15;;;;;;;5.15;3.60;;;;;;;;;;5122366;27;20049;-83
2023/05/12 05:38:41;;;;;;;6.00;3.45;;;;;;;;;;5140778;27;20034;-79
2023/05/12 05:41:06;;;;;;;4.63;3.67;;;;;;;;;;5106096;27;20129;-81
2023/05/12 05:43:32;;;;;;;6.30;3.40;;;;;;;;;;5139652;27;20391;-84
2023/05/12 05:45:57;;;;;;;5.13;3.65;;;;;;;;;;5123603;27;20526;-81
2023/05/12 05:48:23;;;;;;;4.45;4.00;;;;;;;;;;5122625;27;20054;-80
2023/05/12 05:50:50;;;;;;;6.50;3.92;;;;;;;;;;5138393;27;20030;-80
2023/05/12 05:53:17;;;;;;;4.80;3.65;;;;;;;;;;5138900;27;20071;-80
2023/05/12 05:55:43;;;;;;;4.43;3.78;;;;;;;;;;5156997;27;20135;-81
2023/05/12 05:58:08;;;;;;;5.63;3.90;;;;;;;;;;5139007;27;20110;-80
2023/05/12 06:00:33;;;;;;;4.85;3.88;;;;;;;;;;5157237;27;20034;-80
2023/05/12 06:02:59;;;;;;;6.45;4.18;;;;;;;;;;5121571;27;20026;-80
2023/05/12 06:05:24;;;;;;;4.97;3.53;;;;;;;;;;5157053;27;20030;-80
2023/05/12 06:07:50;;;;;;;6.63;4.47;;;;;;;;;;5104091;27;20109;-80
2023/05/12 06:10:15;;;;;;;6.07;4.20;;;;;;;;;;5138167;27;20037;-80
2023/05/12 06:12:42;;;;;;;6.25;3.80;;;;;;;;;;5138223;27;20122;-80
2023/05/12 06:15:07;;;;;;;4.15;3.67;;;;;;;;;;5138879;27;20033;-80
2023/05/12 06:17:33;;;;;;;6.30;4.20;;;;;;;;;;5138115;27;20031;-81
2023/05/12 06:19:58;;;;;;;9.27;4.18;;;;;;;;;;5138056;27;20045;-80
2023/05/12 06:22:23;;;;;;;9.02;5.53;;;;;;;;;;5120634;27;20370;-79
2023/05/12 06:24:49;;;;;;;8.98;5.88;;;;;;;;;;5138040;27;20107;-80
2023/05/12 06:27:14;;;;;;;10.13;6.25;;;;;;;;;;5156378;27;20027;-79
2023/05/12 06:29:40;;;;;;;7.20;5.28;;;;;;;;;;5138421;27;20430;-82
2023/05/12 06:32:05;;;;;;;8.95;5.55;;;;;;;;;;5120581;27;20030;-84
2023/05/12 06:34:31;;;;;;;19.70;8.07;;;;;;;;;;5138450;27;20022;-85
2023/05/12 06:36:56;;;;;;;20.70;8.35;;;;;;;;;;5156858;27;20033;-86
2023/05/12 06:39:22;;;;;;;23.60;8.88;;;;;;;;;;5137737;27;20031;-86
2023/05/12 06:41:47;;;;;;;26.08;9.70;;;;;;;;;;5120396;27;20126;-86
2023/05/12 06:44:13;;;;;;;18.42;8.77;;;;;;;;;;5137635;27;20071;-86
2023/05/12 06:46:38;;;;;;;15.45;7.88;;;;;;;;;;5120235;27;20477;-85
2023/05/12 06:49:05;;;;;;;22.05;7.90;;;;;;;;;;5137895;27;20023;-85
2023/05/12 06:51:30;;;;;;;27.23;7.78;;;;;;;;;;5120326;27;20047;-85
2023/05/12 06:53:55;;;;;;;15.05;7.75;;;;;;;;;;5120367;27;20030;-86
2023/05/12 06:56:22;;;;;;;15.63;7.45;;;;;;;;;;5155926;27;20049;-85
2023/05/12 06:58:48;;;;;;;15.95;7.00;;;;;;;;;;5156102;27;20026;-86
2023/05/12 07:01:13;;;;;;;18.67;7.07;;;;;;;;;;5137327;27;20031;-86
2023/05/12 07:03:39;;;;;;;13.02;6.75;;;;;;;;;;5119602;27;20039;-86
2023/05/12 07:06:04;;;;;;;12.88;6.15;;;;;;;;;;5120027;27;20059;-85
2023/05/12 07:08:30;;;;;;;11.85;5.45;;;;;;;;;;5156136;27;20030;-86
2023/05/12 07:10:55;;;;;;;14.85;5.93;;;;;;;;;;5157023;27;20030;-85
2023/05/12 07:13:21;;;;;;;9.70;5.30;;;;;;;;;;5139599;27;20050;-86
2023/05/12 07:15:46;;;;;;;12.63;6.10;;;;;;;;;;5139055;27;20392;-85
2023/05/12 07:18:12;;;;;;;9.15;5.53;;;;;;;;;;5157989;27;20024;-86
2023/05/12 07:20:38;;;;;;;26.27;9.52;;;;;;;;;;5137278;27;20499;-85
2023/05/12 07:23:03;;;;;;;19.92;7.82;;;;;;;;;;5120378;27;20026;-85
2023/05/12 07:25:28;;;;;;;22.60;7.65;;;;;;;;;;5120556;27;20031;-85
2023/05/12 07:27:54;;;;;;;18.27;7.88;;;;;;;;;;5119671;27;20030;-85
2023/05/12 07:30:21;;;;;;;23.23;7.95;;;;;;;;;;5136733;27;20481;-84
2023/05/12 07:32:46;;;;;;;21.88;7.85;;;;;;;;;;5137242;27;20027;-86
2023/05/12 07:35:12;;;;;;;16.65;7.90;;;;;;;;;;5156360;27;20022;-85
2023/05/12 07:37:37;;;;;;;15.43;7.13;;;;;;;;;;5155140;27;20023;-85
2023/05/12 07:40:03;;;;;;;14.70;7.32;;;;;;;;;;5119536;27;20083;-85
2023/05/12 07:42:29;;;;;;;12.73;6.97;;;;;;;;;;5137150;27;20052;-85
2023/05/12 07:44:55;;;;;;;10.45;6.35;;;;;;;;;;5136492;27;20217;-85
2023/05/12 07:47:20;;;;;;;10.82;6.50;;;;;;;;;;5137411;27;20122;-85
2023/05/12 07:49:46;;;;;;;13.38;6.10;;;;;;;;;;5155807;27;20050;-86
2023/05/12 07:52:11;;;;;;;12.95;5.95;;;;;;;;;;5157768;27;20058;-86
2023/05/12 07:54:36;;;;;;;9.07;5.80;;;;;;;;;;5156934;27;20027;-85
2023/05/12 07:57:02;;;;;;;9.63;6.25;;;;;;;;;;5138534;27;20034;-84
2023/05/12 07:59:27;;;;;;;12.55;6.20;;;;;;;;;;5119860;27;20385;-84
2023/05/12 08:01:53;;;;;;;10.65;5.60;;;;;;;;;;5136570;27;20049;-84
2023/05/12 08:04:19;;;;;;;11.63;6.38;;;;;;;;;;5136325;27;20030;-84
2023/05/12 08:06:44;;;;;;;8.05;5.55;;;;;;;;;;5136364;27;20477;-84
2023/05/12 08:09:09;;;;;;;7.90;5.35;;;;;;;;;;5136652;27;20023;-84
2023/05/12 08:11:35;;;;;;;11.07;5.28;;;;;;;;;;5136607;27;20040;-84
2023/05/12 08:14:00;;;;;;;7.70;5.70;;;;;;;;;;5157088;27;20047;-85
2023/05/12 08:16:26;;;;;;;10.07;5.18;;;;;;;;;;5123762;27;20031;-85
2023/05/12 08:18:51;;;;;;;14.65;5.38;;;;;;;;;;5160332;27;20026;-84
2023/05/12 08:21:16;;;;;;;9.30;5.15;;;;;;;;;;5125557;27;20050;-84
2023/05/12 08:23:43;;;;;;;7.32;5.20;;;;;;;;;;5143720;27;20055;-84
2023/05/12 08:26:08;;;;;;;7.97;5.35;;;;;;;;;;5147450;27;20026;-84
2023/05/12 08:28:34;;;;;;;5.47;4.45;;;;;;;;;;5162530;27;20033;-84
2023/05/12 08:30:59;;;;;;;7.22;5.22;;;;;;;;;;5141528;27;20091;-85
2023/05/12 08:33:25;;;;;;;6.60;4.70;;;;;;;;;;5141009;27;20033;-85
2023/05/12 08:35:50;;;;;;;7.50;5.05;;;;;;;;;;5123334;27;20035;-85
2023/05/12 08:38:16;;;;;;;7.28;4.57;;;;;;;;;;5123147;27;20034;-87
2023/05/12 08:41:11;;;;;;;6.15;4.65;;;;;;;;;;5122926;27;20031;-86
2023/05/12 08:43:41;;;;;;;7.15;4.57;;;;;;;;;;5140164;27;20094;-86
2023/05/12 08:46:07;;;;;;;6.07;4.15;;;;;;;;;;5140185;27;20044;-85
2023/05/12 08:48:34;;;;;;;5.80;4.15;;;;;;;;;;5123333;27;20476;-86
2023/05/12 08:51:01;;;;;;;6.35;4.30;;;;;;;;;;5124488;27;20030;-86
2023/05/12 08:53:28;;;;;;;5.45;3.97;;;;;;;;;;5141565;27;20434;-85
2023/05/12 08:55:55;;;;;;;5.30;3.97;;;;;;;;;;5126077;27;20023;-84
2023/05/12 08:58:21;;;;;;;4.75;4.00;;;;;;;;;;5128043;27;20487;-83
2023/05/12 09:00:46;;;;;;;4.28;3.58;;;;;;;;;;5129651;27;20026;-85
2023/05/12 09:03:13;;;;;;;6.20;3.70;;;;;;;;;;5148731;27;20027;-84
2023/05/12 09:05:39;;;;;;;6.60;3.67;;;;;;;;;;5112817;27;20027;-84
2023/05/12 09:08:05;;;;;;;3.85;3.38;;;;;;;;;;5144801;27;20027;-85
2023/05/12 09:10:31;;;;;;;3.85;3.45;;;;;;;;;;5127409;27;20035;-84
2023/05/12 09:13:22;;;;;;;4.32;3.17;;;;;;;;;;5122810;27;20115;-85
2023/05/12 09:15:50;;;;;;;4.07;3.47;;;;;;;;;;5139979;27;20031;-85
2023/05/12 09:18:15;;;;;;;3.63;2.95;;;;;;;;;;5140036;27;20023;-85
2023/05/12 09:20:41;;;;;;;4.30;3.50;;;;;;;;;;5122837;27;20034;-84
2023/05/12 09:23:21;;;;;;;4.32;3.05;;;;;;;;;;5140939;27;20031;-84
2023/05/12 09:25:47;;;;;;;2.88;2.63;;;;;;;;;;5143713;27;20468;-84
2023/05/12 09:28:12;;;;;;;3.10;2.80;;;;;;;;;;5144989;27;20031;-84
2023/05/12 09:30:41;;;;;;;3.67;2.80;;;;;;;;;;5144860;27;20023;-84
2023/05/12 09:33:08;;;;;;;3.95;3.10;;;;;;;;;;5125546;27;20054;-85
2023/05/12 09:35:52;;;;;;;4.53;2.90;;;;;;;;;;5143887;27;20147;-84
2023/05/12 09:38:17;;;;;;;3.08;2.75;;;;;;;;;;5111694;27;20450;-84
2023/05/12 09:40:42;;;;;;;2.63;2.42;;;;;;;;;;5146970;27;20058;-84
2023/05/12 09:43:08;;;;;;;3.15;2.85;;;;;;;;;;5143367;27;20389;-84
2023/05/12 09:45:35;;;;;;;3.00;2.53;;;;;;;;;;5144420;27;20107;-84
2023/05/12 09:48:11;;;;;;;3.28;2.50;;;;;;;;;;5144099;27;20481;-84
2023/05/12 09:50:44;;;;;;;2.80;2.60;;;;;;;;;;5145393;27;20031;-84
2023/05/12 09:53:10;;;;;;;2.67;2.47;;;;;;;;;;5143327;27;20075;-84
2023/05/12 09:55:36;;;;;;;2.70;2.50;;;;;;;;;;5107888;27;20035;-83
2023/05/12 09:58:07;;;;;;;2.60;2.40;;;;;;;;;;5140513;27;20467;-84
2023/05/12 10:00:33;;;;;;;4.22;2.25;;;;;;;;;;5123146;27;20113;-84
2023/05/12 10:02:59;;;;;;;2.58;2.33;;;;;;;;;;5104602;27;20499;-84
2023/05/12 10:05:25;;;;;;;3.60;2.45;;;;;;;;;;5139169;27;20026;-83
2023/05/12 10:07:53;;;;;;;2.75;2.35;;;;;;;;;;5121517;27;20445;-83
2023/05/12 10:10:23;;;;;;;2.95;2.35;;;;;;;;;;5157134;27;20033;-85
2023/05/12 10:12:48;;;;;;;2.40;2.20;;;;;;;;;;5138505;27;20457;-86
2023/05/12 10:15:16;;;;;;;3.20;2.30;;;;;;;;;;5138331;27;20037;-85
2023/05/12 10:17:42;;;;;;;2.47;2.28;;;;;;;;;;5157057;27;20045;-84
2023/05/12 10:20:08;;;;;;;5.18;2.50;;;;;;;;;;5139190;27;20473;-84
2023/05/12 10:22:34;;;;;;;3.85;2.15;;;;;;;;;;5139352;27;20023;-84
2023/05/12 10:25:01;;;;;;;6.15;2.47;;;;;;;;;;5139853;27;20490;-84
2023/05/12 10:27:28;;;;;;;3.13;2.10;;;;;;;;;;5139127;27;20385;-84
2023/05/12 10:29:54;;;;;;;2.22;1.90;;;;;;;;;;5143211;27;20014;-84
2023/05/12 10:32:19;;;;;;;2.30;2.10;;;;;;;;;;5106827;27;20044;-85
2023/05/12 10:34:45;;;;;;;3.03;2.40;;;;;;;;;;5157490;27;20023;-85
2023/05/12 10:37:10;;;;;;;2.50;2.30;;;;;;;;;;5140147;27;20035;-84
2023/05/12 10:39:37;;;;;;;2.30;2.10;;;;;;;;;;5125870;27;20477;-84
2023/05/12 10:42:09;;;;;;;3.15;2.38;;;;;;;;;;5124929;27;20037;-84
2023/05/12 10:44:36;;;;;;;2.55;2.08;;;;;;;;;;5123729;27;20039;-84
2023/05/12 10:47:12;;;;;;;4.80;2.10;;;;;;;;;;5124257;27;20031;-84
2023/05/12 10:49:41;;;;;;;2.25;2.00;;;;;;;;;;5158349;27;20048;-84
2023/05/12 10:52:06;;;;;;;2.90;2.60;;;;;;;;;;5139694;27;20019;-84
2023/05/12 10:54:43;;;;;;;2.13;1.80;;;;;;;;;;5138491;27;20125;-86
2023/05/12 10:57:19;;;;;;;2.58;2.20;;;;;;;;;;5143689;27;20022;-84
2023/05/12 11:00:12;;;;;;;3.67;2.17;;;;;;;;;;5137759;27;20042;-85
2023/05/12 11:02:48;;;;;;;3.63;2.35;;;;;;;;;;5135496;27;20034;-84
2023/05/12 11:05:13;;;;;;;5.45;2.30;;;;;;;;;;5137709;27;20098;-84
2023/05/12 11:07:39;;;;;;;4.03;2.33;;;;;;;;;;5156127;27;20544;-83
2023/05/12 11:10:05;;;;;;;3.20;1.98;;;;;;;;;;5156104;27;20078;-84
2023/05/12 11:12:32;;;;;;;4.63;2.20;;;;;;;;;;5137293;27;20484;-84
2023/05/12 11:15:01;;;;;;;6.43;2.10;;;;;;;;;;5137463;27;20043;-84
2023/05/12 11:17:26;;;;;;;5.88;2.38;;;;;;;;;;5136934;27;20022;-84
2023/05/12 11:19:52;;;;;;;3.83;2.17;;;;;;;;;;5120303;27;20031;-82
2023/05/12 11:22:20;;;;;;;4.65;2.13;;;;;;;;;;5137845;27;20033;-85
2023/05/12 11:24:46;;;;;;;3.60;2.60;;;;;;;;;;5138011;27;20054;-86
2023/05/12 11:27:14;;;;;;;2.25;1.90;;;;;;;;;;5156320;27;20027;-85
2023/05/12 11:29:41;;;;;;;4.45;2.33;;;;;;;;;;5137147;27;20021;-85
2023/05/12 11:32:09;;;;;;;2.30;2.10;;;;;;;;;;5137154;27;20465;-84
2023/05/12 11:34:34;;;;;;;2.25;2.05;;;;;;;;;;5136764;27;20026;-85
2023/05/12 11:37:00;;;;;;;6.45;2.40;;;;;;;;;;5137548;27;20354;-85
2023/05/12 11:39:27;;;;;;;5.60;2.20;;;;;;;;;;5137712;27;20044;-84
2023/05/12 11:41:53;;;;;;;6.45;2.05;;;;;;;;;;5157067;27;20026;-87
2023/05/12 11:44:23;;;;;;;2.65;2.22;;;;;;;;;;5121559;27;20038;-85
2023/05/12 11:46:56;;;;;;;3.10;2.10;;;;;;;;;;5138040;27;20025;-84
2023/05/12 11:49:21;;;;;;;5.40;2.22;;;;;;;;;;5138039;27;20058;-86
2023/05/12 11:51:47;;;;;;;3.65;2.20;;;;;;;;;;5157112;27;20469;-85
2023/05/12 11:54:13;;;;;;;4.43;1.90;;;;;;;;;;5139107;27;20051;-84
2023/05/12 11:56:47;;;;;;;5.55;2.15;;;;;;;;;;5140504;27;20503;-85
2023/05/12 11:59:12;;;;;;;2.35;2.03;;;;;;;;;;5138006;27;20461;-84
2023/05/12 12:01:47;;;;;;;6.28;2.00;;;;;;;;;;5120156;27;20031;-87
2023/05/12 12:04:13;;;;;;;2.55;1.80;;;;;;;;;;5120274;27;20503;-86
2023/05/12 12:06:43;;;;;;;2.13;1.90;;;;;;;;;;5119392;27;20052;-88
2023/05/12 12:09:08;;;;;;;2.53;2.00;;;;;;;;;;5136825;27;20016;-85
2023/05/12 12:11:34;;;;;;;3.38;2.03;;;;;;;;;;5136419;27;20037;-85
2023/05/12 12:14:00;;;;;;;2.20;1.80;;;;;;;;;;5137478;27;20050;-85
2023/05/12 12:16:27;;;;;;;9.60;2.30;;;;;;;;;;5155370;27;20065;-86
2023/05/12 12:18:52;;;;;;;3.65;1.95;;;;;;;;;;5137955;27;20072;-87
2023/05/12 12:21:18;;;;;;;4.13;2.13;;;;;;;;;;5137061;27;20026;-86
2023/05/12 12:23:44;;;;;;;2.30;1.95;;;;;;;;;;5136692;27;20034;-83
2023/05/12 12:26:09;;;;;;;3.88;1.98;;;;;;;;;;5140701;27;20034;-84
2023/05/12 12:28:35;;;;;;;4.55;2.15;;;;;;;;;;5145620;27;20034;-86
2023/05/12 12:31:01;;;;;;;3.33;2.20;;;;;;;;;;5119986;27;20030;-85
2023/05/12 12:33:26;;;;;;;3.33;2.13;;;;;;;;;;5137173;27;20106;-85
2023/05/12 12:35:52;;;;;;;3.05;2.08;;;;;;;;;;5137515;27;20406;-84
2023/05/12 12:38:17;;;;;;;5.93;2.00;;;;;;;;;;5136246;27;20023;-85
2023/05/12 12:40:43;;;;;;;6.28;2.22;;;;;;;;;;5139403;27;20023;-85
2023/05/12 12:43:08;;;;;;;2.40;1.85;;;;;;;;;;5139409;27;20030;-84
2023/05/12 12:45:34;;;;;;;2.03;1.83;;;;;;;;;;5154482;27;20480;-84
2023/05/12 12:47:59;;;;;;;5.78;2.22;;;;;;;;;;5154215;27;20022;-84
2023/05/12 12:50:25;;;;;;;2.72;2.05;;;;;;;;;;5135891;27;20026;-84
2023/05/12 12:52:50;;;;;;;2.30;1.77;;;;;;;;;;5102483;27;20038;-84
2023/05/12 12:55:16;;;;;;;4.90;2.25;;;;;;;;;;5136532;27;20407;-83
2023/05/12 12:57:41;;;;;;;1.98;1.77;;;;;;;;;;5118637;27;20033;-84
2023/05/12 13:00:07;;;;;;;5.85;3.20;;;;;;;;;;5136033;27;20033;-84
2023/05/12 13:02:33;;;;;;;2.92;2.00;;;;;;;;;;5158152;27;20438;-84
2023/05/12 13:05:02;;;;;;;4.30;2.25;;;;;;;;;;5141005;27;20412;-83
2023/05/12 13:07:28;;;;;;;1.90;1.67;;;;;;;;;;5123465;27;20401;-83
2023/05/12 13:09:53;;;;;;;8.10;2.20;;;;;;;;;;5122281;27;20027;-85
2023/05/12 13:12:19;;;;;;;2.20;1.90;;;;;;;;;;5122858;27;20030;-84
2023/05/12 13:14:45;;;;;;;3.00;2.00;;;;;;;;;;5140733;27;20496;-84
2023/05/12 13:17:10;;;;;;;2.38;2.17;;;;;;;;;;5140021;27;20045;-85
2023/05/12 13:19:36;;;;;;;2.17;1.70;;;;;;;;;;5104694;27;20058;-84
2023/05/12 13:22:01;;;;;;;2.88;2.03;;;;;;;;;;5122033;27;20035;-85
2023/05/12 13:24:27;;;;;;;2.20;2.00;;;;;;;;;;5139270;27;20046;-84
2023/05/12 13:26:52;;;;;;;4.00;2.05;;;;;;;;;;5140786;27;20022;-86
2023/05/12 13:29:18;;;;;;;2.20;2.00;;;;;;;;;;5122020;27;20022;-84
2023/05/12 13:31:44;;;;;;;2.20;2.00;;;;;;;;;;5140193;27;20067;-84
2023/05/12 13:34:10;;;;;;;2.13;1.92;;;;;;;;;;5107043;27;20027;-85
2023/05/12 13:36:35;;;;;;;2.83;2.10;;;;;;;;;;5158611;27;20046;-83
2023/05/12 13:39:01;;;;;;;5.13;1.88;;;;;;;;;;5140177;27;20027;-84
2023/05/12 13:41:27;;;;;;;2.20;2.00;;;;;;;;;;5123305;27;20030;-84
2023/05/12 13:43:52;;;;;;;1.88;1.70;;;;;;;;;;5158211;27;20212;-83
2023/05/12 13:46:17;;;;;;;1.95;1.85;;;;;;;;;;5157778;27;20118;-85
2023/05/12 13:48:43;;;;;;;2.13;1.85;;;;;;;;;;5121313;27;20023;-85
2023/05/12 13:51:09;;;;;;;2.58;2.20;;;;;;;;;;5139581;27;20384;-84
2023/05/12 13:53:37;;;;;;;4.22;1.98;;;;;;;;;;5160762;27;20022;-85
2023/05/12 13:56:06;;;;;;;6.35;2.13;;;;;;;;;;5150574;27;20038;-83
2023/05/12 13:58:31;;;;;;;2.30;2.10;;;;;;;;;;5166069;27;20029;-83
2023/05/12 14:00:56;;;;;;;2.00;1.88;;;;;;;;;;5139486;27;20026;-84
2023/05/12 14:03:22;;;;;;;2.05;1.92;;;;;;;;;;5121590;27;20034;-83
2023/05/12 14:05:47;;;;;;;2.90;1.95;;;;;;;;;;5137817;27;20026;-83
2023/05/12 14:08:16;;;;;;;2.65;2.00;;;;;;;;;;5156755;27;20027;-83
2023/05/12 14:10:41;;;;;;;4.18;2.00;;;;;;;;;;5158391;27;20155;-83
2023/05/12 14:13:07;;;;;;;3.67;2.22;;;;;;;;;;5137374;27;20141;-85
2023/05/12 14:15:32;;;;;;;2.15;1.85;;;;;;;;;;5156493;27;20026;-84
2023/05/12 14:17:57;;;;;;;2.08;1.90;;;;;;;;;;5137743;27;20164;-84
2023/05/12 14:20:23;;;;;;;2.20;2.00;;;;;;;;;;5156000;27;20062;-83
2023/05/12 14:22:48;;;;;;;2.83;1.90;;;;;;;;;;5137913;27;20027;-84
2023/05/12 14:25:15;;;;;;;2.22;1.98;;;;;;;;;;5138812;27;20058;-85
2023/05/12 14:27:40;;;;;;;5.80;2.20;;;;;;;;;;5156271;27;20465;-85
2023/05/12 14:30:06;;;;;;;3.55;2.00;;;;;;;;;;5143041;27;20054;-84
2023/05/12 14:32:33;;;;;;;2.42;1.88;;;;;;;;;;5139728;27;20035;-86
2023/05/12 14:34:58;;;;;;;5.00;1.77;;;;;;;;;;5156951;27;20105;-85